sensor_id;sensor_type;location;lat;lon;timestamp;temperature;humidity
75430;DHT22;64127;51.488;5.462;2023-06-14T00:01:39;22.70;56.70
75430;DHT22;64127;51.488;5.462;2023-06-14T00:04:11;22.70;56.60
75430;DHT22;64127;51.488;5.462;2023-06-14T00:06:45;22.60;56.70
75430;DHT22;64127;51.488;5.462;2023-06-14T00:09:17;22.60;56.80
75430;DHT22;64127;51.488;5.462;2023-06-14T00:11:49;22.50;57.30
75430;DHT22;64127;51.488;5.462;2023-06-14T00:14:21;22.50;56.90
75430;DHT22;64127;51.488;5.462;2023-06-14T00:16:53;22.40;57.00
75430;DHT22;64127;51.488;5.462;2023-06-14T00:19:30;22.40;57.20
75430;DHT22;64127;51.488;5.462;2023-06-14T00:22:07;22.40;57.90
75430;DHT22;64127;51.488;5.462;2023-06-14T00:24:39;22.30;57.40
75430;DHT22;64127;51.488;5.462;2023-06-14T00:27:11;22.20;57.40
75430;DHT22;64127;51.488;5.462;2023-06-14T00:29:43;22.20;57.50
75430;DHT22;64127;51.488;5.462;2023-06-14T00:32:15;22.20;57.70
75430;DHT22;64127;51.488;5.462;2023-06-14T00:34:47;22.10;57.60
75430;DHT22;64127;51.488;5.462;2023-06-14T00:37:19;22.10;57.90
75430;DHT22;64127;51.488;5.462;2023-06-14T00:39:51;22.00;58.00
75430;DHT22;64127;51.488;5.462;2023-06-14T00:42:27;22.00;58.20
75430;DHT22;64127;51.488;5.462;2023-06-14T00:45:00;21.90;58.30
75430;DHT22;64127;51.488;5.462;2023-06-14T00:47:32;21.90;58.40
75430;DHT22;64127;51.488;5.462;2023-06-14T00:50:09;21.80;58.40
75430;DHT22;64127;51.488;5.462;2023-06-14T00:52:43;21.80;58.50
75430;DHT22;64127;51.488;5.462;2023-06-14T00:55:15;21.70;58.50
75430;DHT22;64127;51.488;5.462;2023-06-14T00:57:48;21.70;58.70
75430;DHT22;64127;51.488;5.462;2023-06-14T01:00:21;21.70;58.80
75430;DHT22;64127;51.488;5.462;2023-06-14T01:02:53;21.60;58.70
75430;DHT22;64127;51.488;5.462;2023-06-14T01:05:26;21.60;58.60
75430;DHT22;64127;51.488;5.462;2023-06-14T01:11:02;21.50;58.70
75430;DHT22;64127;51.488;5.462;2023-06-14T01:13:45;21.50;58.70
75430;DHT22;64127;51.488;5.462;2023-06-14T01:16:18;21.40;58.70
75430;DHT22;64127;51.488;5.462;2023-06-14T01:18:52;21.40;58.80
75430;DHT22;64127;51.488;5.462;2023-06-14T01:21:28;21.30;58.60
75430;DHT22;64127;51.488;5.462;2023-06-14T01:24:00;21.30;58.50
75430;DHT22;64127;51.488;5.462;2023-06-14T01:26:36;21.30;58.50
75430;DHT22;64127;51.488;5.462;2023-06-14T01:29:09;21.20;58.40
75430;DHT22;64127;51.488;5.462;2023-06-14T01:31:43;21.20;58.30
75430;DHT22;64127;51.488;5.462;2023-06-14T01:34:17;21.20;58.20
75430;DHT22;64127;51.488;5.462;2023-06-14T01:36:50;21.20;58.20
75430;DHT22;64127;51.488;5.462;2023-06-14T01:39:24;21.10;58.20
75430;DHT22;64127;51.488;5.462;2023-06-14T01:41:56;21.10;58.30
75430;DHT22;64127;51.488;5.462;2023-06-14T01:44:30;21.10;58.30
75430;DHT22;64127;51.488;5.462;2023-06-14T01:47:03;21.10;58.30
75430;DHT22;64127;51.488;5.462;2023-06-14T01:49:36;21.10;58.10
75430;DHT22;64127;51.488;5.462;2023-06-14T01:52:10;21.00;58.00
75430;DHT22;64127;51.488;5.462;2023-06-14T01:54:42;21.00;57.90
75430;DHT22;64127;51.488;5.462;2023-06-14T01:57:14;21.00;57.90
75430;DHT22;64127;51.488;5.462;2023-06-14T01:59:46;20.90;57.50
75430;DHT22;64127;51.488;5.462;2023-06-14T02:02:20;21.00;57.50
75430;DHT22;64127;51.488;5.462;2023-06-14T02:04:52;20.90;57.30
75430;DHT22;64127;51.488;5.462;2023-06-14T02:07:24;20.90;57.30
75430;DHT22;64127;51.488;5.462;2023-06-14T02:09:56;20.90;57.30
75430;DHT22;64127;51.488;5.462;2023-06-14T02:12:28;20.90;57.30
75430;DHT22;64127;51.488;5.462;2023-06-14T02:15:00;20.90;57.20
75430;DHT22;64127;51.488;5.462;2023-06-14T02:17:32;20.80;57.10
75430;DHT22;64127;51.488;5.462;2023-06-14T02:20:05;20.80;57.00
75430;DHT22;64127;51.488;5.462;2023-06-14T02:22:40;20.80;57.10
75430;DHT22;64127;51.488;5.462;2023-06-14T02:25:12;20.80;57.00
75430;DHT22;64127;51.488;5.462;2023-06-14T02:27:44;20.80;57.10
75430;DHT22;64127;51.488;5.462;2023-06-14T02:30:16;20.70;57.10
75430;DHT22;64127;51.488;5.462;2023-06-14T02:32:49;20.70;57.10
75430;DHT22;64127;51.488;5.462;2023-06-14T02:35:23;20.70;57.00
75430;DHT22;64127;51.488;5.462;2023-06-14T02:37:58;20.70;56.90
75430;DHT22;64127;51.488;5.462;2023-06-14T02:40:30;20.60;56.90
75430;DHT22;64127;51.488;5.462;2023-06-14T02:43:02;20.60;56.90
75430;DHT22;64127;51.488;5.462;2023-06-14T02:45:34;20.60;56.70
75430;DHT22;64127;51.488;5.462;2023-06-14T02:48:06;20.60;56.50
75430;DHT22;64127;51.488;5.462;2023-06-14T02:50:38;20.60;56.50
75430;DHT22;64127;51.488;5.462;2023-06-14T02:53:11;20.60;56.70
75430;DHT22;64127;51.488;5.462;2023-06-14T02:55:43;20.50;56.50
75430;DHT22;64127;51.488;5.462;2023-06-14T02:58:15;20.50;56.60
75430;DHT22;64127;51.488;5.462;2023-06-14T03:00:47;20.50;56.70
75430;DHT22;64127;51.488;5.462;2023-06-14T03:03:19;20.50;56.70
75430;DHT22;64127;51.488;5.462;2023-06-14T03:05:53;20.40;56.80
75430;DHT22;64127;51.488;5.462;2023-06-14T03:08:26;20.40;57.00
75430;DHT22;64127;51.488;5.462;2023-06-14T03:11:00;20.30;57.00
75430;DHT22;64127;51.488;5.462;2023-06-14T03:13:36;20.40;57.20
75430;DHT22;64127;51.488;5.462;2023-06-14T03:16:10;20.40;57.20
75430;DHT22;64127;51.488;5.462;2023-06-14T03:18:42;20.30;57.00
75430;DHT22;64127;51.488;5.462;2023-06-14T03:21:14;20.30;57.10
75430;DHT22;64127;51.488;5.462;2023-06-14T03:23:48;20.30;57.20
75430;DHT22;64127;51.488;5.462;2023-06-14T03:26:20;20.30;57.30
75430;DHT22;64127;51.488;5.462;2023-06-14T03:28:53;20.20;57.30
75430;DHT22;64127;51.488;5.462;2023-06-14T03:31:25;20.20;57.30
75430;DHT22;64127;51.488;5.462;2023-06-14T03:33:59;20.20;57.30
75430;DHT22;64127;51.488;5.462;2023-06-14T03:36:31;20.10;57.30
75430;DHT22;64127;51.488;5.462;2023-06-14T03:39:05;20.10;57.30
75430;DHT22;64127;51.488;5.462;2023-06-14T03:41:37;20.10;57.50
75430;DHT22;64127;51.488;5.462;2023-06-14T03:44:09;20.10;57.60
75430;DHT22;64127;51.488;5.462;2023-06-14T03:46:41;20.10;57.80
75430;DHT22;64127;51.488;5.462;2023-06-14T03:49:13;20.00;57.70
75430;DHT22;64127;51.488;5.462;2023-06-14T03:51:48;20.00;57.70
75430;DHT22;64127;51.488;5.462;2023-06-14T03:54:23;20.00;57.90
75430;DHT22;64127;51.488;5.462;2023-06-14T03:56:58;19.90;57.90
75430;DHT22;64127;51.488;5.462;2023-06-14T03:59:31;20.00;58.20
75430;DHT22;64127;51.488;5.462;2023-06-14T04:02:02;19.90;58.20
75430;DHT22;64127;51.488;5.462;2023-06-14T04:04:35;19.90;58.30
75430;DHT22;64127;51.488;5.462;2023-06-14T04:07:07;19.90;58.40
75430;DHT22;64127;51.488;5.462;2023-06-14T04:09:40;19.90;58.30
75430;DHT22;64127;51.488;5.462;2023-06-14T04:12:13;19.90;58.20
75430;DHT22;64127;51.488;5.462;2023-06-14T04:14:45;19.80;58.10
75430;DHT22;64127;51.488;5.462;2023-06-14T04:17:17;19.80;58.20
75430;DHT22;64127;51.488;5.462;2023-06-14T04:19:49;19.80;58.40
75430;DHT22;64127;51.488;5.462;2023-06-14T04:22:21;19.90;58.50
75430;DHT22;64127;51.488;5.462;2023-06-14T04:24:53;19.80;58.60
75430;DHT22;64127;51.488;5.462;2023-06-14T04:27:36;19.80;58.70
75430;DHT22;64127;51.488;5.462;2023-06-14T04:30:10;19.80;58.70
75430;DHT22;64127;51.488;5.462;2023-06-14T04:32:42;19.90;58.70
75430;DHT22;64127;51.488;5.462;2023-06-14T04:35:15;19.90;58.70
75430;DHT22;64127;51.488;5.462;2023-06-14T04:37:49;19.80;58.60
75430;DHT22;64127;51.488;5.462;2023-06-14T04:40:21;19.90;58.70
75430;DHT22;64127;51.488;5.462;2023-06-14T04:42:53;19.90;58.50
75430;DHT22;64127;51.488;5.462;2023-06-14T04:45:26;19.80;58.50
75430;DHT22;64127;51.488;5.462;2023-06-14T04:48:03;19.90;58.50
75430;DHT22;64127;51.488;5.462;2023-06-14T04:50:36;19.80;58.50
75430;DHT22;64127;51.488;5.462;2023-06-14T04:53:08;19.90;58.70
75430;DHT22;64127;51.488;5.462;2023-06-14T04:55:40;19.90;58.80
75430;DHT22;64127;51.488;5.462;2023-06-14T04:58:16;19.90;58.70
75430;DHT22;64127;51.488;5.462;2023-06-14T05:00:48;19.90;58.70
75430;DHT22;64127;51.488;5.462;2023-06-14T05:03:20;20.00;58.80
75430;DHT22;64127;51.488;5.462;2023-06-14T05:05:52;19.90;58.60
75430;DHT22;64127;51.488;5.462;2023-06-14T05:08:25;20.00;58.70
75430;DHT22;64127;51.488;5.462;2023-06-14T05:10:58;20.00;58.70
75430;DHT22;64127;51.488;5.462;2023-06-14T05:13:30;20.00;58.70
75430;DHT22;64127;51.488;5.462;2023-06-14T05:16:04;20.00;58.70
75430;DHT22;64127;51.488;5.462;2023-06-14T05:18:36;20.10;58.80
75430;DHT22;64127;51.488;5.462;2023-06-14T05:21:09;20.10;58.80
75430;DHT22;64127;51.488;5.462;2023-06-14T05:23:43;20.20;58.90
75430;DHT22;64127;51.488;5.462;2023-06-14T05:26:16;20.30;58.90
75430;DHT22;64127;51.488;5.462;2023-06-14T05:28:49;20.30;58.90
75430;DHT22;64127;51.488;5.462;2023-06-14T05:31:25;20.40;58.90
75430;DHT22;64127;51.488;5.462;2023-06-14T05:33:57;20.50;59.10
75430;DHT22;64127;51.488;5.462;2023-06-14T05:36:30;20.60;59.10
75430;DHT22;64127;51.488;5.462;2023-06-14T05:39:02;20.70;58.90
75430;DHT22;64127;51.488;5.462;2023-06-14T05:41:34;20.70;58.70
75430;DHT22;64127;51.488;5.462;2023-06-14T05:44:08;20.80;58.90
75430;DHT22;64127;51.488;5.462;2023-06-14T05:46:40;20.90;58.90
75430;DHT22;64127;51.488;5.462;2023-06-14T05:49:12;21.00;59.00
75430;DHT22;64127;51.488;5.462;2023-06-14T05:51:44;21.10;59.00
75430;DHT22;64127;51.488;5.462;2023-06-14T05:54:16;21.10;58.80
75430;DHT22;64127;51.488;5.462;2023-06-14T05:56:48;21.20;58.80
75430;DHT22;64127;51.488;5.462;2023-06-14T05:59:20;21.30;58.80
75430;DHT22;64127;51.488;5.462;2023-06-14T06:01:52;21.40;58.70
75430;DHT22;64127;51.488;5.462;2023-06-14T06:04:24;21.40;58.60
75430;DHT22;64127;51.488;5.462;2023-06-14T06:06:57;21.50;58.60
75430;DHT22;64127;51.488;5.462;2023-06-14T06:09:30;21.60;58.50
75430;DHT22;64127;51.488;5.462;2023-06-14T06:12:02;21.70;58.50
75430;DHT22;64127;51.488;5.462;2023-06-14T06:14:34;21.70;58.40
75430;DHT22;64127;51.488;5.462;2023-06-14T06:17:06;21.90;58.60
75430;DHT22;64127;51.488;5.462;2023-06-14T06:19:38;22.00;58.40
75430;DHT22;64127;51.488;5.462;2023-06-14T06:22:11;22.10;58.10
75430;DHT22;64127;51.488;5.462;2023-06-14T06:24:43;22.10;57.80
75430;DHT22;64127;51.488;5.462;2023-06-14T06:27:16;22.20;57.70
75430;DHT22;64127;51.488;5.462;2023-06-14T06:29:50;22.20;57.70
75430;DHT22;64127;51.488;5.462;2023-06-14T06:32:23;22.30;57.60
75430;DHT22;64127;51.488;5.462;2023-06-14T06:34:55;22.40;57.50
75430;DHT22;64127;51.488;5.462;2023-06-14T06:37:27;22.50;57.50
75430;DHT22;64127;51.488;5.462;2023-06-14T06:39:59;22.50;57.50
75430;DHT22;64127;51.488;5.462;2023-06-14T06:42:32;22.60;57.50
75430;DHT22;64127;51.488;5.462;2023-06-14T06:45:04;22.70;57.50
75430;DHT22;64127;51.488;5.462;2023-06-14T06:47:36;22.80;57.30
75430;DHT22;64127;51.488;5.462;2023-06-14T06:50:09;22.90;57.10
75430;DHT22;64127;51.488;5.462;2023-06-14T06:52:41;22.90;56.80
75430;DHT22;64127;51.488;5.462;2023-06-14T06:55:13;23.00;56.90
75430;DHT22;64127;51.488;5.462;2023-06-14T06:57:46;23.10;57.00
75430;DHT22;64127;51.488;5.462;2023-06-14T07:00:19;23.10;56.80
75430;DHT22;64127;51.488;5.462;2023-06-14T07:02:52;23.20;56.60
75430;DHT22;64127;51.488;5.462;2023-06-14T07:05:27;23.30;56.40
75430;DHT22;64127;51.488;5.462;2023-06-14T07:07:59;23.40;56.00
75430;DHT22;64127;51.488;5.462;2023-06-14T07:10:31;23.40;55.80
75430;DHT22;64127;51.488;5.462;2023-06-14T07:13:03;23.50;55.70
75430;DHT22;64127;51.488;5.462;2023-06-14T07:15:35;23.60;55.60
75430;DHT22;64127;51.488;5.462;2023-06-14T07:18:07;23.60;55.30
75430;DHT22;64127;51.488;5.462;2023-06-14T07:20:40;23.70;55.00
75430;DHT22;64127;51.488;5.462;2023-06-14T07:23:13;23.80;54.80
75430;DHT22;64127;51.488;5.462;2023-06-14T07:25:45;23.90;54.70
75430;DHT22;64127;51.488;5.462;2023-06-14T07:28:17;23.90;54.60
75430;DHT22;64127;51.488;5.462;2023-06-14T07:30:50;24.00;54.70
75430;DHT22;64127;51.488;5.462;2023-06-14T07:33:22;24.10;54.80
75430;DHT22;64127;51.488;5.462;2023-06-14T07:35:54;24.20;54.60
75430;DHT22;64127;51.488;5.462;2023-06-14T07:38:27;24.30;54.40
75430;DHT22;64127;51.488;5.462;2023-06-14T07:40:59;24.40;54.30
75430;DHT22;64127;51.488;5.462;2023-06-14T07:43:32;24.50;54.30
75430;DHT22;64127;51.488;5.462;2023-06-14T07:46:04;24.60;54.10
75430;DHT22;64127;51.488;5.462;2023-06-14T07:48:38;24.70;54.00
75430;DHT22;64127;51.488;5.462;2023-06-14T07:51:11;24.80;53.60
75430;DHT22;64127;51.488;5.462;2023-06-14T07:53:43;24.90;53.20
75430;DHT22;64127;51.488;5.462;2023-06-14T07:56:15;24.90;52.90
75430;DHT22;64127;51.488;5.462;2023-06-14T07:58:47;25.00;52.80
75430;DHT22;64127;51.488;5.462;2023-06-14T08:01:19;25.00;52.90
75430;DHT22;64127;51.488;5.462;2023-06-14T08:03:52;25.10;52.90
75430;DHT22;64127;51.488;5.462;2023-06-14T08:06:24;25.20;52.80
75430;DHT22;64127;51.488;5.462;2023-06-14T08:08:56;25.30;52.50
75430;DHT22;64127;51.488;5.462;2023-06-14T08:11:28;25.30;52.00
75430;DHT22;64127;51.488;5.462;2023-06-14T08:14:00;25.30;51.80
75430;DHT22;64127;51.488;5.462;2023-06-14T08:16:32;25.40;51.70
75430;DHT22;64127;51.488;5.462;2023-06-14T08:19:04;25.50;51.60
75430;DHT22;64127;51.488;5.462;2023-06-14T08:21:37;25.60;51.30
75430;DHT22;64127;51.488;5.462;2023-06-14T08:24:11;25.60;51.10
75430;DHT22;64127;51.488;5.462;2023-06-14T08:26:44;25.60;50.90
75430;DHT22;64127;51.488;5.462;2023-06-14T08:29:16;25.70;50.70
75430;DHT22;64127;51.488;5.462;2023-06-14T08:31:48;25.70;50.60
75430;DHT22;64127;51.488;5.462;2023-06-14T08:34:20;25.70;50.50
75430;DHT22;64127;51.488;5.462;2023-06-14T08:36:52;25.80;50.20
75430;DHT22;64127;51.488;5.462;2023-06-14T08:39:24;25.90;50.20
75430;DHT22;64127;51.488;5.462;2023-06-14T08:41:57;26.00;50.10
75430;DHT22;64127;51.488;5.462;2023-06-14T08:44:30;26.00;50.20
75430;DHT22;64127;51.488;5.462;2023-06-14T08:47:02;26.10;49.80
75430;DHT22;64127;51.488;5.462;2023-06-14T08:49:36;26.20;49.40
75430;DHT22;64127;51.488;5.462;2023-06-14T08:52:10;26.20;49.40
75430;DHT22;64127;51.488;5.462;2023-06-14T08:54:44;26.30;49.40
75430;DHT22;64127;51.488;5.462;2023-06-14T08:57:21;26.40;49.10
75430;DHT22;64127;51.488;5.462;2023-06-14T08:59:53;26.40;49.00
75430;DHT22;64127;51.488;5.462;2023-06-14T09:02:25;26.50;49.00
75430;DHT22;64127;51.488;5.462;2023-06-14T09:04:57;26.60;48.70
75430;DHT22;64127;51.488;5.462;2023-06-14T09:07:31;26.70;48.50
75430;DHT22;64127;51.488;5.462;2023-06-14T09:10:09;26.70;48.00
75430;DHT22;64127;51.488;5.462;2023-06-14T09:12:43;26.70;47.80
75430;DHT22;64127;51.488;5.462;2023-06-14T09:15:15;26.70;47.80
75430;DHT22;64127;51.488;5.462;2023-06-14T09:17:48;26.70;47.30
75430;DHT22;64127;51.488;5.462;2023-06-14T09:20:20;26.70;46.90
75430;DHT22;64127;51.488;5.462;2023-06-14T09:22:53;26.80;47.10
75430;DHT22;64127;51.488;5.462;2023-06-14T09:25:25;26.80;46.20
75430;DHT22;64127;51.488;5.462;2023-06-14T09:28:09;26.80;46.10
75430;DHT22;64127;51.488;5.462;2023-06-14T09:30:42;26.90;46.20
75430;DHT22;64127;51.488;5.462;2023-06-14T09:33:17;27.10;46.20
75430;DHT22;64127;51.488;5.462;2023-06-14T09:35:54;27.20;45.80
75430;DHT22;64127;51.488;5.462;2023-06-14T09:38:26;27.30;45.30
75430;DHT22;64127;51.488;5.462;2023-06-14T09:40:59;27.30;44.90
75430;DHT22;64127;51.488;5.462;2023-06-14T09:43:31;27.30;44.40
75430;DHT22;64127;51.488;5.462;2023-06-14T09:46:06;27.40;44.30
75430;DHT22;64127;51.488;5.462;2023-06-14T09:48:40;27.50;44.00
75430;DHT22;64127;51.488;5.462;2023-06-14T09:51:15;27.50;43.60
75430;DHT22;64127;51.488;5.462;2023-06-14T09:53:50;27.40;43.40
75430;DHT22;64127;51.488;5.462;2023-06-14T09:56:27;27.50;43.60
75430;DHT22;64127;51.488;5.462;2023-06-14T09:59:05;27.60;43.70
75430;DHT22;64127;51.488;5.462;2023-06-14T10:01:42;27.70;43.60
75430;DHT22;64127;51.488;5.462;2023-06-14T10:04:15;27.80;43.50
75430;DHT22;64127;51.488;5.462;2023-06-14T10:06:53;27.80;43.20
75430;DHT22;64127;51.488;5.462;2023-06-14T10:09:26;27.80;43.00
75430;DHT22;64127;51.488;5.462;2023-06-14T10:12:03;27.90;42.80
75430;DHT22;64127;51.488;5.462;2023-06-14T10:14:36;27.90;42.80
75430;DHT22;64127;51.488;5.462;2023-06-14T10:17:10;28.00;42.60
75430;DHT22;64127;51.488;5.462;2023-06-14T10:23:17;28.10;42.30
75430;DHT22;64127;51.488;5.462;2023-06-14T10:25:57;28.20;42.30
75430;DHT22;64127;51.488;5.462;2023-06-14T10:28:29;28.20;42.30
75430;DHT22;64127;51.488;5.462;2023-06-14T10:31:09;28.20;42.30
75430;DHT22;64127;51.488;5.462;2023-06-14T10:41:40;28.40;41.50
75430;DHT22;64127;51.488;5.462;2023-06-14T10:46:49;28.50;41.70
75430;DHT22;64127;51.488;5.462;2023-06-14T10:49:44;28.60;41.70
75430;DHT22;64127;51.488;5.462;2023-06-14T10:52:21;28.60;41.60
75430;DHT22;64127;51.488;5.462;2023-06-14T10:55:18;28.60;41.30
75430;DHT22;64127;51.488;5.462;2023-06-14T10:57:54;28.60;41.30
75430;DHT22;64127;51.488;5.462;2023-06-14T11:00:33;28.60;41.30
75430;DHT22;64127;51.488;5.462;2023-06-14T11:03:50;28.60;41.30
75430;DHT22;64127;51.488;5.462;2023-06-14T11:06:29;28.70;41.40
75430;DHT22;64127;51.488;5.462;2023-06-14T11:09:59;28.80;41.40
75430;DHT22;64127;51.488;5.462;2023-06-14T11:12:37;28.80;41.00
75430;DHT22;64127;51.488;5.462;2023-06-14T11:15:11;28.80;41.00
75430;DHT22;64127;51.488;5.462;2023-06-14T11:17:53;28.80;40.90
75430;DHT22;64127;51.488;5.462;2023-06-14T11:20:26;28.90;40.70
75430;DHT22;64127;51.488;5.462;2023-06-14T11:22:59;29.00;40.80
75430;DHT22;64127;51.488;5.462;2023-06-14T11:25:32;29.00;41.00
75430;DHT22;64127;51.488;5.462;2023-06-14T11:28:04;29.00;41.10
75430;DHT22;64127;51.488;5.462;2023-06-14T11:30:36;29.00;41.30
75430;DHT22;64127;51.488;5.462;2023-06-14T11:33:10;29.00;41.50
75430;DHT22;64127;51.488;5.462;2023-06-14T11:35:45;29.10;41.60
75430;DHT22;64127;51.488;5.462;2023-06-14T11:38:17;29.10;41.60
75430;DHT22;64127;51.488;5.462;2023-06-14T11:40:50;29.10;41.80
75430;DHT22;64127;51.488;5.462;2023-06-14T11:43:22;29.10;41.90
75430;DHT22;64127;51.488;5.462;2023-06-14T11:45:54;29.10;41.90
75430;DHT22;64127;51.488;5.462;2023-06-14T11:48:40;29.10;41.80
75430;DHT22;64127;51.488;5.462;2023-06-14T11:51:14;29.10;41.90
75430;DHT22;64127;51.488;5.462;2023-06-14T11:53:46;29.00;42.00
75430;DHT22;64127;51.488;5.462;2023-06-14T11:56:19;29.00;42.00
75430;DHT22;64127;51.488;5.462;2023-06-14T11:58:52;29.10;42.10
75430;DHT22;64127;51.488;5.462;2023-06-14T12:01:30;29.10;41.80
75430;DHT22;64127;51.488;5.462;2023-06-14T12:04:02;29.10;41.80
75430;DHT22;64127;51.488;5.462;2023-06-14T12:06:35;29.20;41.90
75430;DHT22;64127;51.488;5.462;2023-06-14T12:09:12;29.30;41.90
75430;DHT22;64127;51.488;5.462;2023-06-14T12:11:48;29.30;41.90
75430;DHT22;64127;51.488;5.462;2023-06-14T12:14:28;29.30;41.90
75430;DHT22;64127;51.488;5.462;2023-06-14T12:17:06;29.30;41.70
75430;DHT22;64127;51.488;5.462;2023-06-14T12:19:43;29.30;41.70
75430;DHT22;64127;51.488;5.462;2023-06-14T12:22:17;29.30;41.70
75430;DHT22;64127;51.488;5.462;2023-06-14T12:24:49;29.20;41.70
75430;DHT22;64127;51.488;5.462;2023-06-14T12:27:21;29.30;42.10
75430;DHT22;64127;51.488;5.462;2023-06-14T12:30:02;29.40;42.00
75430;DHT22;64127;51.488;5.462;2023-06-14T12:32:36;29.40;41.80
75430;DHT22;64127;51.488;5.462;2023-06-14T12:35:08;29.40;41.80
75430;DHT22;64127;51.488;5.462;2023-06-14T12:37:41;29.50;41.80
75430;DHT22;64127;51.488;5.462;2023-06-14T12:40:13;29.50;41.70
75430;DHT22;64127;51.488;5.462;2023-06-14T12:42:45;29.50;41.90
75430;DHT22;64127;51.488;5.462;2023-06-14T12:45:18;29.50;41.70
75430;DHT22;64127;51.488;5.462;2023-06-14T12:47:51;29.50;41.30
75430;DHT22;64127;51.488;5.462;2023-06-14T12:50:23;29.50;41.10
75430;DHT22;64127;51.488;5.462;2023-06-14T12:52:57;29.50;41.00
75430;DHT22;64127;51.488;5.462;2023-06-14T12:55:29;29.50;41.10
75430;DHT22;64127;51.488;5.462;2023-06-14T12:58:01;29.60;41.10
75430;DHT22;64127;51.488;5.462;2023-06-14T13:00:34;29.70;40.80
75430;DHT22;64127;51.488;5.462;2023-06-14T13:03:07;29.70;40.60
75430;DHT22;64127;51.488;5.462;2023-06-14T13:05:39;29.80;40.40
75430;DHT22;64127;51.488;5.462;2023-06-14T13:08:12;29.80;40.30
75430;DHT22;64127;51.488;5.462;2023-06-14T13:10:45;29.80;40.20
75430;DHT22;64127;51.488;5.462;2023-06-14T13:13:17;29.80;40.00
75430;DHT22;64127;51.488;5.462;2023-06-14T13:15:50;29.90;40.00
75430;DHT22;64127;51.488;5.462;2023-06-14T13:18:22;29.80;39.60
75430;DHT22;64127;51.488;5.462;2023-06-14T13:20:54;29.90;39.70
75430;DHT22;64127;51.488;5.462;2023-06-14T13:23:26;29.90;40.00
75430;DHT22;64127;51.488;5.462;2023-06-14T13:25:58;29.90;39.90
75430;DHT22;64127;51.488;5.462;2023-06-14T13:28:34;29.90;40.00
75430;DHT22;64127;51.488;5.462;2023-06-14T13:31:07;29.90;40.00
75430;DHT22;64127;51.488;5.462;2023-06-14T13:33:39;30.00;40.10
75430;DHT22;64127;51.488;5.462;2023-06-14T13:36:11;30.10;40.20
75430;DHT22;64127;51.488;5.462;2023-06-14T13:38:43;30.10;40.10
75430;DHT22;64127;51.488;5.462;2023-06-14T13:41:16;30.10;39.90
75430;DHT22;64127;51.488;5.462;2023-06-14T13:43:48;30.10;40.20
75430;DHT22;64127;51.488;5.462;2023-06-14T13:46:22;30.10;40.00
75430;DHT22;64127;51.488;5.462;2023-06-14T13:48:54;30.10;39.80
75430;DHT22;64127;51.488;5.462;2023-06-14T13:51:26;30.10;39.80
75430;DHT22;64127;51.488;5.462;2023-06-14T13:53:58;30.20;39.80
75430;DHT22;64127;51.488;5.462;2023-06-14T13:56:30;30.20;39.90
75430;DHT22;64127;51.488;5.462;2023-06-14T13:59:02;30.20;40.00
75430;DHT22;64127;51.488;5.462;2023-06-14T14:01:34;30.30;40.30
75430;DHT22;64127;51.488;5.462;2023-06-14T14:04:07;30.40;40.50
75430;DHT22;64127;51.488;5.462;2023-06-14T14:06:39;30.20;40.40
75430;DHT22;64127;51.488;5.462;2023-06-14T14:09:11;30.30;40.40
75430;DHT22;64127;51.488;5.462;2023-06-14T14:11:44;30.30;40.30
75430;DHT22;64127;51.488;5.462;2023-06-14T14:14:16;30.20;40.20
75430;DHT22;64127;51.488;5.462;2023-06-14T14:16:49;30.20;41.00
75430;DHT22;64127;51.488;5.462;2023-06-14T14:19:26;30.20;40.40
75430;DHT22;64127;51.488;5.462;2023-06-14T14:21:58;30.30;40.20
75430;DHT22;64127;51.488;5.462;2023-06-14T14:24:30;30.30;40.00
75430;DHT22;64127;51.488;5.462;2023-06-14T14:27:03;30.20;39.70
75430;DHT22;64127;51.488;5.462;2023-06-14T14:29:35;30.20;39.60
75430;DHT22;64127;51.488;5.462;2023-06-14T14:32:07;30.20;39.60
75430;DHT22;64127;51.488;5.462;2023-06-14T14:34:42;30.20;39.50
75430;DHT22;64127;51.488;5.462;2023-06-14T14:37:14;30.10;39.40
75430;DHT22;64127;51.488;5.462;2023-06-14T14:39:46;30.10;39.70
75430;DHT22;64127;51.488;5.462;2023-06-14T14:42:18;30.20;39.80
75430;DHT22;64127;51.488;5.462;2023-06-14T14:44:51;30.10;39.80
75430;DHT22;64127;51.488;5.462;2023-06-14T14:47:23;30.20;39.80
75430;DHT22;64127;51.488;5.462;2023-06-14T14:49:55;30.20;39.80
75430;DHT22;64127;51.488;5.462;2023-06-14T14:52:27;30.10;39.70
75430;DHT22;64127;51.488;5.462;2023-06-14T14:55:00;30.20;39.80
75430;DHT22;64127;51.488;5.462;2023-06-14T14:57:32;30.10;39.80
75430;DHT22;64127;51.488;5.462;2023-06-14T15:00:05;30.00;39.60
75430;DHT22;64127;51.488;5.462;2023-06-14T15:02:37;30.00;39.70
75430;DHT22;64127;51.488;5.462;2023-06-14T15:05:09;30.00;40.30
75430;DHT22;64127;51.488;5.462;2023-06-14T15:07:41;30.00;40.30
75430;DHT22;64127;51.488;5.462;2023-06-14T15:10:14;30.10;40.40
75430;DHT22;64127;51.488;5.462;2023-06-14T15:12:46;30.10;40.40
75430;DHT22;64127;51.488;5.462;2023-06-14T15:15:18;30.10;40.40
75430;DHT22;64127;51.488;5.462;2023-06-14T15:17:51;30.00;40.50
75430;DHT22;64127;51.488;5.462;2023-06-14T15:20:23;30.00;40.50
75430;DHT22;64127;51.488;5.462;2023-06-14T15:22:55;29.90;40.50
75430;DHT22;64127;51.488;5.462;2023-06-14T15:25:33;29.90;40.60
75430;DHT22;64127;51.488;5.462;2023-06-14T15:28:05;29.90;40.70
75430;DHT22;64127;51.488;5.462;2023-06-14T15:30:38;29.90;40.60
75430;DHT22;64127;51.488;5.462;2023-06-14T15:33:10;29.90;40.60
75430;DHT22;64127;51.488;5.462;2023-06-14T15:35:42;29.90;40.60
75430;DHT22;64127;51.488;5.462;2023-06-14T15:38:14;30.00;40.80
75430;DHT22;64127;51.488;5.462;2023-06-14T15:40:46;30.10;40.70
75430;DHT22;64127;51.488;5.462;2023-06-14T15:43:21;30.10;40.60
75430;DHT22;64127;51.488;5.462;2023-06-14T15:45:54;30.20;40.60
75430;DHT22;64127;51.488;5.462;2023-06-14T15:48:26;30.40;40.60
75430;DHT22;64127;51.488;5.462;2023-06-14T15:50:59;30.40;40.20
75430;DHT22;64127;51.488;5.462;2023-06-14T15:53:31;30.50;40.00
75430;DHT22;64127;51.488;5.462;2023-06-14T15:56:03;30.50;40.10
75430;DHT22;64127;51.488;5.462;2023-06-14T15:58:35;30.40;40.00
75430;DHT22;64127;51.488;5.462;2023-06-14T16:01:07;30.50;40.10
75430;DHT22;64127;51.488;5.462;2023-06-14T16:03:39;30.60;40.10
75430;DHT22;64127;51.488;5.462;2023-06-14T16:06:12;30.60;40.10
75430;DHT22;64127;51.488;5.462;2023-06-14T16:08:44;30.70;39.90
75430;DHT22;64127;51.488;5.462;2023-06-14T16:11:17;30.70;39.70
75430;DHT22;64127;51.488;5.462;2023-06-14T16:13:49;30.60;39.60
75430;DHT22;64127;51.488;5.462;2023-06-14T16:16:22;30.50;39.50
75430;DHT22;64127;51.488;5.462;2023-06-14T16:18:54;30.50;39.70
75430;DHT22;64127;51.488;5.462;2023-06-14T16:21:26;30.50;39.80
75430;DHT22;64127;51.488;5.462;2023-06-14T16:23:58;30.50;39.80
75430;DHT22;64127;51.488;5.462;2023-06-14T16:26:30;30.50;39.70